sensor_id;sensor_type;location;lat;lon;timestamp;P1;durP1;ratioP1;P2;durP2;ratioP2
11608;SDS011;5860;52.018;8.536;2023-05-10T00:00:37;10.37;;;9.27;;
11608;SDS011;5860;52.018;8.536;2023-05-10T00:03:05;10.67;;;9.57;;
11608;SDS011;5860;52.018;8.536;2023-05-10T00:05:32;10.33;;;9.30;;
11608;SDS011;5860;52.018;8.536;2023-05-10T00:07:59;10.43;;;9.10;;
11608;SDS011;5860;52.018;8.536;2023-05-10T00:10:26;11.30;;;9.27;;
11608;SDS011;5860;52.018;8.536;2023-05-10T00:12:52;10.70;;;9.53;;
11608;SDS011;5860;52.018;8.536;2023-05-10T00:15:20;10.80;;;9.70;;
11608;SDS011;5860;52.018;8.536;2023-05-10T00:17:47;10.90;;;9.80;;
11608;SDS011;5860;52.018;8.536;2023-05-10T00:20:13;12.37;;;9.73;;
11608;SDS011;5860;52.018;8.536;2023-05-10T00:22:41;10.57;;;9.47;;
11608;SDS011;5860;52.018;8.536;2023-05-10T00:25:08;11.60;;;10.37;;
11608;SDS011;5860;52.018;8.536;2023-05-10T00:27:36;12.00;;;10.40;;
11608;SDS011;5860;52.018;8.536;2023-05-10T00:30:03;11.60;;;10.40;;
11608;SDS011;5860;52.018;8.536;2023-05-10T00:32:31;11.47;;;10.37;;
11608;SDS011;5860;52.018;8.536;2023-05-10T00:34:58;10.90;;;9.90;;
11608;SDS011;5860;52.018;8.536;2023-05-10T00:37:25;11.57;;;10.43;;
11608;SDS011;5860;52.018;8.536;2023-05-10T00:39:52;12.47;;;11.10;;
11608;SDS011;5860;52.018;8.536;2023-05-10T00:42:19;12.23;;;10.77;;
11608;SDS011;5860;52.018;8.536;2023-05-10T00:44:46;11.90;;;10.37;;
11608;SDS011;5860;52.018;8.536;2023-05-10T00:47:13;12.13;;;10.93;;
11608;SDS011;5860;52.018;8.536;2023-05-10T00:49:40;11.97;;;10.77;;
11608;SDS011;5860;52.018;8.536;2023-05-10T00:52:08;11.87;;;10.67;;
11608;SDS011;5860;52.018;8.536;2023-05-10T00:54:35;12.50;;;10.93;;
11608;SDS011;5860;52.018;8.536;2023-05-10T00:57:03;13.93;;;11.80;;
11608;SDS011;5860;52.018;8.536;2023-05-10T00:59:30;11.87;;;10.50;;
11608;SDS011;5860;52.018;8.536;2023-05-10T01:01:57;13.20;;;11.17;;
11608;SDS011;5860;52.018;8.536;2023-05-10T01:04:24;13.73;;;11.43;;
11608;SDS011;5860;52.018;8.536;2023-05-10T01:06:52;13.93;;;11.43;;
11608;SDS011;5860;52.018;8.536;2023-05-10T01:09:22;13.03;;;11.73;;
11608;SDS011;5860;52.018;8.536;2023-05-10T01:11:51;13.10;;;11.10;;
11608;SDS011;5860;52.018;8.536;2023-05-10T01:14:18;12.93;;;11.30;;
11608;SDS011;5860;52.018;8.536;2023-05-10T01:16:47;11.70;;;10.50;;
11608;SDS011;5860;52.018;8.536;2023-05-10T01:21:56;13.57;;;11.70;;
11608;SDS011;5860;52.018;8.536;2023-05-10T01:27:36;13.17;;;11.77;;
11608;SDS011;5860;52.018;8.536;2023-05-10T01:38:49;14.00;;;12.07;;
11608;SDS011;5860;52.018;8.536;2023-05-10T01:41:40;14.13;;;12.00;;
11608;SDS011;5860;52.018;8.536;2023-05-10T01:44:49;13.73;;;11.77;;
11608;SDS011;5860;52.018;8.536;2023-05-10T01:47:16;11.70;;;10.10;;
11608;SDS011;5860;52.018;8.536;2023-05-10T01:49:54;12.93;;;11.07;;
11608;SDS011;5860;52.018;8.536;2023-05-10T01:52:25;11.90;;;10.57;;
11608;SDS011;5860;52.018;8.536;2023-05-10T01:55:28;11.50;;;10.30;;
11608;SDS011;5860;52.018;8.536;2023-05-10T01:57:51;11.87;;;9.80;;
11608;SDS011;5860;52.018;8.536;2023-05-10T02:00:25;9.83;;;8.20;;
11608;SDS011;5860;52.018;8.536;2023-05-10T02:02:53;12.77;;;10.20;;
11608;SDS011;5860;52.018;8.536;2023-05-10T02:05:21;7.97;;;7.00;;
11608;SDS011;5860;52.018;8.536;2023-05-10T02:07:49;9.40;;;7.43;;
11608;SDS011;5860;52.018;8.536;2023-05-10T02:10:17;9.03;;;7.60;;
11608;SDS011;5860;52.018;8.536;2023-05-10T02:12:47;8.40;;;7.60;;
11608;SDS011;5860;52.018;8.536;2023-05-10T02:15:17;9.57;;;7.63;;
11608;SDS011;5860;52.018;8.536;2023-05-10T02:17:47;7.03;;;5.87;;
11608;SDS011;5860;52.018;8.536;2023-05-10T02:20:14;6.90;;;5.60;;
11608;SDS011;5860;52.018;8.536;2023-05-10T02:22:44;5.63;;;5.10;;
11608;SDS011;5860;52.018;8.536;2023-05-10T02:25:15;5.70;;;5.20;;
11608;SDS011;5860;52.018;8.536;2023-05-10T02:27:45;6.97;;;5.50;;
11608;SDS011;5860;52.018;8.536;2023-05-10T02:30:13;5.70;;;5.20;;
11608;SDS011;5860;52.018;8.536;2023-05-10T02:32:42;6.13;;;5.60;;
11608;SDS011;5860;52.018;8.536;2023-05-10T02:35:10;6.83;;;6.13;;
11608;SDS011;5860;52.018;8.536;2023-05-10T02:37:38;7.00;;;6.30;;
11608;SDS011;5860;52.018;8.536;2023-05-10T02:40:07;8.37;;;7.00;;
11608;SDS011;5860;52.018;8.536;2023-05-10T02:42:35;8.33;;;7.33;;
11608;SDS011;5860;52.018;8.536;2023-05-10T02:45:07;8.87;;;7.33;;
11608;SDS011;5860;52.018;8.536;2023-05-10T02:47:37;9.17;;;8.13;;
11608;SDS011;5860;52.018;8.536;2023-05-10T02:50:05;11.10;;;8.83;;
11608;SDS011;5860;52.018;8.536;2023-05-10T02:52:39;11.77;;;10.07;;
11608;SDS011;5860;52.018;8.536;2023-05-10T02:55:09;11.70;;;10.50;;
11608;SDS011;5860;52.018;8.536;2023-05-10T02:57:57;9.57;;;8.57;;
11608;SDS011;5860;52.018;8.536;2023-05-10T03:00:26;8.53;;;7.63;;
11608;SDS011;5860;52.018;8.536;2023-05-10T03:02:53;8.37;;;7.63;;
11608;SDS011;5860;52.018;8.536;2023-05-10T03:05:21;8.47;;;7.67;;
11608;SDS011;5860;52.018;8.536;2023-05-10T03:07:48;8.43;;;7.50;;
11608;SDS011;5860;52.018;8.536;2023-05-10T03:10:15;8.40;;;7.53;;
11608;SDS011;5860;52.018;8.536;2023-05-10T03:15:34;8.33;;;7.53;;
11608;SDS011;5860;52.018;8.536;2023-05-10T03:18:12;10.87;;;8.23;;
11608;SDS011;5860;52.018;8.536;2023-05-10T03:20:48;9.83;;;8.73;;
11608;SDS011;5860;52.018;8.536;2023-05-10T03:25:44;19.03;;;14.07;;
11608;SDS011;5860;52.018;8.536;2023-05-10T03:28:13;15.83;;;14.17;;
11608;SDS011;5860;52.018;8.536;2023-05-10T03:30:42;16.47;;;14.67;;
11608;SDS011;5860;52.018;8.536;2023-05-10T03:33:09;19.70;;;15.37;;
11608;SDS011;5860;52.018;8.536;2023-05-10T03:35:37;19.17;;;15.67;;
11608;SDS011;5860;52.018;8.536;2023-05-10T03:38:03;21.10;;;16.70;;
11608;SDS011;5860;52.018;8.536;2023-05-10T03:40:31;12.13;;;10.07;;
11608;SDS011;5860;52.018;8.536;2023-05-10T03:42:58;10.03;;;9.00;;
11608;SDS011;5860;52.018;8.536;2023-05-10T03:45:25;9.07;;;7.93;;
11608;SDS011;5860;52.018;8.536;2023-05-10T03:47:53;8.80;;;8.00;;
11608;SDS011;5860;52.018;8.536;2023-05-10T03:50:20;7.83;;;6.57;;
11608;SDS011;5860;52.018;8.536;2023-05-10T03:52:47;7.03;;;6.10;;
11608;SDS011;5860;52.018;8.536;2023-05-10T03:55:14;6.17;;;5.57;;
11608;SDS011;5860;52.018;8.536;2023-05-10T03:57:42;7.27;;;6.10;;
11608;SDS011;5860;52.018;8.536;2023-05-10T04:00:09;6.53;;;5.27;;
11608;SDS011;5860;52.018;8.536;2023-05-10T04:02:36;6.50;;;5.80;;
11608;SDS011;5860;52.018;8.536;2023-05-10T04:05:04;5.33;;;4.83;;
11608;SDS011;5860;52.018;8.536;2023-05-10T04:07:31;6.00;;;5.40;;
11608;SDS011;5860;52.018;8.536;2023-05-10T04:09:57;7.83;;;4.40;;
11608;SDS011;5860;52.018;8.536;2023-05-10T04:12:25;3.40;;;3.10;;
11608;SDS011;5860;52.018;8.536;2023-05-10T04:14:52;4.30;;;2.70;;
11608;SDS011;5860;52.018;8.536;2023-05-10T04:17:18;3.87;;;2.60;;
11608;SDS011;5860;52.018;8.536;2023-05-10T04:19:46;4.13;;;2.37;;
11608;SDS011;5860;52.018;8.536;2023-05-10T04:22:12;2.70;;;1.50;;
11608;SDS011;5860;52.018;8.536;2023-05-10T04:24:40;1.50;;;1.40;;
11608;SDS011;5860;52.018;8.536;2023-05-10T04:27:07;2.33;;;1.03;;
11608;SDS011;5860;52.018;8.536;2023-05-10T04:29:33;1.50;;;1.30;;
11608;SDS011;5860;52.018;8.536;2023-05-10T04:32:00;1.27;;;1.10;;
11608;SDS011;5860;52.018;8.536;2023-05-10T04:34:27;1.20;;;1.10;;
11608;SDS011;5860;52.018;8.536;2023-05-10T04:36:54;1.40;;;1.23;;
11608;SDS011;5860;52.018;8.536;2023-05-10T04:39:21;1.40;;;1.20;;
11608;SDS011;5860;52.018;8.536;2023-05-10T04:41:48;3.03;;;1.23;;
11608;SDS011;5860;52.018;8.536;2023-05-10T04:44:16;1.40;;;1.30;;
11608;SDS011;5860;52.018;8.536;2023-05-10T04:46:43;1.73;;;1.40;;
11608;SDS011;5860;52.018;8.536;2023-05-10T04:49:10;2.50;;;1.50;;
11608;SDS011;5860;52.018;8.536;2023-05-10T04:51:37;1.87;;;1.70;;
11608;SDS011;5860;52.018;8.536;2023-05-10T04:54:04;4.30;;;2.03;;
11608;SDS011;5860;52.018;8.536;2023-05-10T04:56:32;2.70;;;2.30;;
11608;SDS011;5860;52.018;8.536;2023-05-10T04:59:00;2.87;;;2.50;;
11608;SDS011;5860;52.018;8.536;2023-05-10T05:01:27;5.47;;;2.47;;
11608;SDS011;5860;52.018;8.536;2023-05-10T05:03:53;5.33;;;2.20;;
11608;SDS011;5860;52.018;8.536;2023-05-10T05:06:21;2.47;;;2.27;;
11608;SDS011;5860;52.018;8.536;2023-05-10T05:08:48;2.53;;;2.33;;
11608;SDS011;5860;52.018;8.536;2023-05-10T05:11:16;2.57;;;2.20;;
11608;SDS011;5860;52.018;8.536;2023-05-10T05:13:43;3.00;;;2.20;;
11608;SDS011;5860;52.018;8.536;2023-05-10T05:16:10;2.33;;;2.13;;
11608;SDS011;5860;52.018;8.536;2023-05-10T05:18:37;2.87;;;2.50;;
11608;SDS011;5860;52.018;8.536;2023-05-10T05:21:14;2.70;;;2.50;;
11608;SDS011;5860;52.018;8.536;2023-05-10T05:23:45;4.07;;;2.30;;
11608;SDS011;5860;52.018;8.536;2023-05-10T05:26:12;2.50;;;2.30;;
11608;SDS011;5860;52.018;8.536;2023-05-10T05:28:39;2.57;;;2.37;;
11608;SDS011;5860;52.018;8.536;2023-05-10T05:31:06;3.10;;;2.80;;
11608;SDS011;5860;52.018;8.536;2023-05-10T05:33:34;2.77;;;2.57;;
11608;SDS011;5860;52.018;8.536;2023-05-10T05:36:02;3.50;;;3.20;;
11608;SDS011;5860;52.018;8.536;2023-05-10T05:38:32;2.90;;;2.70;;
11608;SDS011;5860;52.018;8.536;2023-05-10T05:40:59;3.73;;;2.93;;
11608;SDS011;5860;52.018;8.536;2023-05-10T05:43:26;2.73;;;2.53;;
11608;SDS011;5860;52.018;8.536;2023-05-10T05:45:53;3.17;;;2.80;;
11608;SDS011;5860;52.018;8.536;2023-05-10T05:48:21;2.90;;;2.70;;
11608;SDS011;5860;52.018;8.536;2023-05-10T05:50:48;3.63;;;2.93;;
11608;SDS011;5860;52.018;8.536;2023-05-10T05:53:15;3.07;;;2.77;;
11608;SDS011;5860;52.018;8.536;2023-05-10T05:55:53;2.97;;;2.67;;
11608;SDS011;5860;52.018;8.536;2023-05-10T05:58:21;3.00;;;2.40;;
11608;SDS011;5860;52.018;8.536;2023-05-10T06:00:49;3.00;;;2.33;;
11608;SDS011;5860;52.018;8.536;2023-05-10T06:03:16;3.33;;;2.90;;
11608;SDS011;5860;52.018;8.536;2023-05-10T06:05:43;3.00;;;2.50;;
11608;SDS011;5860;52.018;8.536;2023-05-10T06:08:10;2.30;;;2.10;;
11608;SDS011;5860;52.018;8.536;2023-05-10T06:10:37;3.53;;;2.47;;
11608;SDS011;5860;52.018;8.536;2023-05-10T06:13:04;2.50;;;2.30;;
11608;SDS011;5860;52.018;8.536;2023-05-10T06:15:31;2.20;;;2.00;;
11608;SDS011;5860;52.018;8.536;2023-05-10T06:17:58;2.87;;;2.37;;
11608;SDS011;5860;52.018;8.536;2023-05-10T06:20:25;2.83;;;2.63;;
11608;SDS011;5860;52.018;8.536;2023-05-10T06:22:53;2.60;;;2.33;;
11608;SDS011;5860;52.018;8.536;2023-05-10T06:25:20;2.33;;;2.13;;
11608;SDS011;5860;52.018;8.536;2023-05-10T06:27:47;3.00;;;2.33;;
11608;SDS011;5860;52.018;8.536;2023-05-10T06:30:19;4.23;;;2.10;;
11608;SDS011;5860;52.018;8.536;2023-05-10T06:32:46;4.90;;;2.30;;
11608;SDS011;5860;52.018;8.536;2023-05-10T06:35:13;2.70;;;2.50;;
11608;SDS011;5860;52.018;8.536;2023-05-10T06:37:40;4.13;;;2.30;;
11608;SDS011;5860;52.018;8.536;2023-05-10T06:40:07;4.27;;;2.40;;
11608;SDS011;5860;52.018;8.536;2023-05-10T06:42:35;6.13;;;2.10;;
11608;SDS011;5860;52.018;8.536;2023-05-10T06:45:03;3.17;;;2.43;;
11608;SDS011;5860;52.018;8.536;2023-05-10T06:47:30;3.23;;;2.40;;
11608;SDS011;5860;52.018;8.536;2023-05-10T06:49:57;3.03;;;1.97;;
11608;SDS011;5860;52.018;8.536;2023-05-10T06:52:25;2.70;;;1.93;;
11608;SDS011;5860;52.018;8.536;2023-05-10T06:54:52;3.73;;;2.07;;
11608;SDS011;5860;52.018;8.536;2023-05-10T06:57:19;3.97;;;2.33;;
11608;SDS011;5860;52.018;8.536;2023-05-10T06:59:56;2.90;;;2.37;;
11608;SDS011;5860;52.018;8.536;2023-05-10T07:02:26;2.97;;;2.20;;
11608;SDS011;5860;52.018;8.536;2023-05-10T07:04:53;2.87;;;2.30;;
11608;SDS011;5860;52.018;8.536;2023-05-10T07:07:20;4.07;;;2.63;;
11608;SDS011;5860;52.018;8.536;2023-05-10T07:09:48;6.37;;;2.70;;
11608;SDS011;5860;52.018;8.536;2023-05-10T07:12:16;4.00;;;3.00;;
11608;SDS011;5860;52.018;8.536;2023-05-10T07:14:43;5.47;;;3.30;;
11608;SDS011;5860;52.018;8.536;2023-05-10T07:17:10;4.90;;;3.40;;
11608;SDS011;5860;52.018;8.536;2023-05-10T07:19:37;4.10;;;3.50;;
11608;SDS011;5860;52.018;8.536;2023-05-10T07:22:04;6.20;;;4.13;;
11608;SDS011;5860;52.018;8.536;2023-05-10T07:24:32;7.43;;;4.57;;
11608;SDS011;5860;52.018;8.536;2023-05-10T07:26:59;5.10;;;4.50;;
11608;SDS011;5860;52.018;8.536;2023-05-10T07:29:27;5.43;;;4.13;;
11608;SDS011;5860;52.018;8.536;2023-05-10T07:31:54;6.43;;;4.20;;
11608;SDS011;5860;52.018;8.536;2023-05-10T07:34:24;7.13;;;5.57;;
11608;SDS011;5860;52.018;8.536;2023-05-10T07:36:52;7.73;;;5.67;;
11608;SDS011;5860;52.018;8.536;2023-05-10T07:39:19;6.97;;;5.50;;
11608;SDS011;5860;52.018;8.536;2023-05-10T07:41:53;10.00;;;5.60;;
11608;SDS011;5860;52.018;8.536;2023-05-10T07:44:20;7.17;;;5.97;;
11608;SDS011;5860;52.018;8.536;2023-05-10T07:46:47;6.17;;;5.57;;
11608;SDS011;5860;52.018;8.536;2023-05-10T07:49:15;9.90;;;6.30;;
11608;SDS011;5860;52.018;8.536;2023-05-10T07:51:42;11.00;;;7.37;;
11608;SDS011;5860;52.018;8.536;2023-05-10T07:54:09;9.37;;;7.33;;
11608;SDS011;5860;52.018;8.536;2023-05-10T07:56:37;8.63;;;7.40;;
11608;SDS011;5860;52.018;8.536;2023-05-10T07:59:06;10.93;;;7.73;;
11608;SDS011;5860;52.018;8.536;2023-05-10T08:01:36;9.57;;;7.43;;
11608;SDS011;5860;52.018;8.536;2023-05-10T08:04:03;9.60;;;8.17;;
11608;SDS011;5860;52.018;8.536;2023-05-10T08:06:30;10.80;;;8.30;;
11608;SDS011;5860;52.018;8.536;2023-05-10T08:08:57;11.47;;;8.33;;
11608;SDS011;5860;52.018;8.536;2023-05-10T08:11:24;12.17;;;8.57;;
11608;SDS011;5860;52.018;8.536;2023-05-10T08:13:51;12.90;;;9.33;;
11608;SDS011;5860;52.018;8.536;2023-05-10T08:16:19;12.67;;;9.17;;
11608;SDS011;5860;52.018;8.536;2023-05-10T08:18:46;12.70;;;9.40;;
11608;SDS011;5860;52.018;8.536;2023-05-10T08:21:15;15.03;;;9.70;;
11608;SDS011;5860;52.018;8.536;2023-05-10T08:23:43;13.93;;;10.23;;
11608;SDS011;5860;52.018;8.536;2023-05-10T08:26:15;13.73;;;10.37;;
11608;SDS011;5860;52.018;8.536;2023-05-10T08:28:42;16.60;;;10.33;;
11608;SDS011;5860;52.018;8.536;2023-05-10T08:31:09;17.57;;;11.10;;
11608;SDS011;5860;52.018;8.536;2023-05-10T08:33:36;15.03;;;10.77;;
11608;SDS011;5860;52.018;8.536;2023-05-10T08:36:03;15.57;;;11.70;;
11608;SDS011;5860;52.018;8.536;2023-05-10T08:38:30;14.33;;;11.00;;
11608;SDS011;5860;52.018;8.536;2023-05-10T08:40:57;15.50;;;11.17;;
11608;SDS011;5860;52.018;8.536;2023-05-10T08:43:29;14.37;;;10.67;;
11608;SDS011;5860;52.018;8.536;2023-05-10T08:45:59;13.70;;;10.50;;
11608;SDS011;5860;52.018;8.536;2023-05-10T08:48:29;16.67;;;11.87;;
11608;SDS011;5860;52.018;8.536;2023-05-10T08:50:58;15.53;;;11.37;;
11608;SDS011;5860;52.018;8.536;2023-05-10T08:53:26;13.80;;;10.90;;
11608;SDS011;5860;52.018;8.536;2023-05-10T08:55:55;14.83;;;11.33;;
11608;SDS011;5860;52.018;8.536;2023-05-10T08:58:23;16.50;;;12.03;;
11608;SDS011;5860;52.018;8.536;2023-05-10T09:00:51;15.77;;;12.70;;
11608;SDS011;5860;52.018;8.536;2023-05-10T09:03:19;16.60;;;12.60;;
11608;SDS011;5860;52.018;8.536;2023-05-10T09:05:46;14.07;;;11.03;;
11608;SDS011;5860;52.018;8.536;2023-05-10T09:08:14;17.73;;;13.13;;
11608;SDS011;5860;52.018;8.536;2023-05-10T09:10:45;17.40;;;12.83;;
11608;SDS011;5860;52.018;8.536;2023-05-10T09:13:14;19.77;;;14.17;;
11608;SDS011;5860;52.018;8.536;2023-05-10T09:15:43;22.10;;;15.30;;
11608;SDS011;5860;52.018;8.536;2023-05-10T09:18:11;21.03;;;14.53;;
11608;SDS011;5860;52.018;8.536;2023-05-10T09:20:38;22.23;;;14.97;;
11608;SDS011;5860;52.018;8.536;2023-05-10T09:23:06;20.27;;;15.43;;
11608;SDS011;5860;52.018;8.536;2023-05-10T09:25:33;23.37;;;16.43;;
11608;SDS011;5860;52.018;8.536;2023-05-10T09:28:01;24.40;;;16.97;;
11608;SDS011;5860;52.018;8.536;2023-05-10T09:30:29;22.17;;;16.47;;
11608;SDS011;5860;52.018;8.536;2023-05-10T09:32:58;24.37;;;17.40;;
11608;SDS011;5860;52.018;8.536;2023-05-10T09:35:29;25.17;;;16.87;;
11608;SDS011;5860;52.018;8.536;2023-05-10T09:38:03;21.13;;;15.70;;
11608;SDS011;5860;52.018;8.536;2023-05-10T09:40:31;21.30;;;16.67;;
11608;SDS011;5860;52.018;8.536;2023-05-10T09:42:59;21.70;;;15.97;;
11608;SDS011;5860;52.018;8.536;2023-05-10T09:45:31;20.60;;;15.23;;
11608;SDS011;5860;52.018;8.536;2023-05-10T09:48:02;18.07;;;15.17;;
11608;SDS011;5860;52.018;8.536;2023-05-10T09:50:30;19.57;;;14.87;;
11608;SDS011;5860;52.018;8.536;2023-05-10T09:55:38;17.40;;;13.43;;
11608;SDS011;5860;52.018;8.536;2023-05-10T09:58:06;16.63;;;14.33;;
11608;SDS011;5860;52.018;8.536;2023-05-10T10:00:37;17.08;;;13.20;;
11608;SDS011;5860;52.018;8.536;2023-05-10T10:03:15;17.65;;;12.80;;
11608;SDS011;5860;52.018;8.536;2023-05-10T10:05:43;15.00;;;12.63;;
11608;SDS011;5860;52.018;8.536;2023-05-10T10:08:11;15.25;;;12.30;;
11608;SDS011;5860;52.018;8.536;2023-05-10T10:10:40;13.25;;;11.80;;
11608;SDS011;5860;52.018;8.536;2023-05-10T10:13:08;13.38;;;10.57;;
11608;SDS011;5860;52.018;8.536;2023-05-10T10:15:35;13.35;;;10.40;;
11608;SDS011;5860;52.018;8.536;2023-05-10T10:18:02;12.63;;;10.52;;
11608;SDS011;5860;52.018;8.536;2023-05-10T10:20:31;12.32;;;10.27;;
11608;SDS011;5860;52.018;8.536;2023-05-10T10:22:58;13.10;;;11.15;;
11608;SDS011;5860;52.018;8.536;2023-05-10T10:25:25;13.68;;;10.70;;
11608;SDS011;5860;52.018;8.536;2023-05-10T10:30:35;11.50;;;8.85;;
11608;SDS011;5860;52.018;8.536;2023-05-10T10:35:59;9.68;;;8.68;;
11608;SDS011;5860;52.018;8.536;2023-05-10T10:38:37;12.23;;;8.55;;
11608;SDS011;5860;52.018;8.536;2023-05-10T11:08:46;6.20;;;5.30;;
11608;SDS011;5860;52.018;8.536;2023-05-10T11:16:14;6.43;;;5.80;;
11608;SDS011;5860;52.018;8.536;2023-05-10T11:19:01;7.30;;;5.50;;
11608;SDS011;5860;52.018;8.536;2023-05-10T11:21:30;7.40;;;5.88;;
11608;SDS011;5860;52.018;8.536;2023-05-10T11:23:58;7.47;;;5.70;;
11608;SDS011;5860;52.018;8.536;2023-05-10T11:26:30;6.35;;;5.60;;
11608;SDS011;5860;52.018;8.536;2023-05-10T11:28:58;7.15;;;5.70;;
11608;SDS011;5860;52.018;8.536;2023-05-10T11:31:28;9.05;;;6.25;;
11608;SDS011;5860;52.018;8.536;2023-05-10T11:33:56;6.80;;;5.93;;
11608;SDS011;5860;52.018;8.536;2023-05-10T11:36:28;7.30;;;6.07;;
11608;SDS011;5860;52.018;8.536;2023-05-10T11:38:58;7.65;;;5.75;;
11608;SDS011;5860;52.018;8.536;2023-05-10T11:41:27;9.43;;;6.18;;
11608;SDS011;5860;52.018;8.536;2023-05-10T11:43:55;7.32;;;5.80;;
11608;SDS011;5860;52.018;8.536;2023-05-10T11:46:26;8.65;;;5.90;;
11608;SDS011;5860;52.018;8.536;2023-05-10T11:48:58;8.80;;;6.90;;
11608;SDS011;5860;52.018;8.536;2023-05-10T11:51:35;8.02;;;7.07;;
11608;SDS011;5860;52.018;8.536;2023-05-10T11:54:07;9.07;;;7.10;;
11608;SDS011;5860;52.018;8.536;2023-05-10T11:56:36;8.82;;;7.10;;
11608;SDS011;5860;52.018;8.536;2023-05-10T11:59:04;7.20;;;6.15;;
11608;SDS011;5860;52.018;8.536;2023-05-10T12:01:31;7.30;;;5.40;;
11608;SDS011;5860;52.018;8.536;2023-05-10T12:03:58;11.38;;;5.70;;
11608;SDS011;5860;52.018;8.536;2023-05-10T12:06:28;9.65;;;6.32;;
11608;SDS011;5860;52.018;8.536;2023-05-10T12:08:57;8.15;;;5.20;;
11608;SDS011;5860;52.018;8.536;2023-05-10T12:11:25;10.00;;;5.43;;
11608;SDS011;5860;52.018;8.536;2023-05-10T12:13:54;18.40;;;8.82;;
11608;SDS011;5860;52.018;8.536;2023-05-10T12:16:23;15.07;;;8.05;;
11608;SDS011;5860;52.018;8.536;2023-05-10T12:18:52;12.27;;;8.67;;
11608;SDS011;5860;52.018;8.536;2023-05-10T12:21:23;13.13;;;9.33;;
11608;SDS011;5860;52.018;8.536;2023-05-10T12:23:51;15.97;;;10.67;;
11608;SDS011;5860;52.018;8.536;2023-05-10T12:26:23;16.97;;;11.27;;
11608;SDS011;5860;52.018;8.536;2023-05-10T12:28:55;17.07;;;11.27;;
11608;SDS011;5860;52.018;8.536;2023-05-10T12:31:54;18.00;;;11.87;;
11608;SDS011;5860;52.018;8.536;2023-05-10T12:34:35;14.57;;;11.83;;
11608;SDS011;5860;52.018;8.536;2023-05-10T12:37:03;17.07;;;12.87;;
11608;SDS011;5860;52.018;8.536;2023-05-10T12:39:40;16.67;;;12.00;;
11608;SDS011;5860;52.018;8.536;2023-05-10T12:42:08;15.30;;;11.20;;
11608;SDS011;5860;52.018;8.536;2023-05-10T12:44:36;15.97;;;11.87;;
11608;SDS011;5860;52.018;8.536;2023-05-10T12:47:03;14.83;;;11.10;;
11608;SDS011;5860;52.018;8.536;2023-05-10T12:49:30;13.77;;;10.63;;
11608;SDS011;5860;52.018;8.536;2023-05-10T12:51:58;16.20;;;12.47;;
11608;SDS011;5860;52.018;8.536;2023-05-10T12:54:25;16.70;;;12.77;;
11608;SDS011;5860;52.018;8.536;2023-05-10T12:56:52;16.10;;;12.37;;
11608;SDS011;5860;52.018;8.536;2023-05-10T12:59:20;15.80;;;11.63;;
11608;SDS011;5860;52.018;8.536;2023-05-10T13:01:47;18.00;;;13.10;;
11608;SDS011;5860;52.018;8.536;2023-05-10T13:04:14;19.47;;;12.57;;
11608;SDS011;5860;52.018;8.536;2023-05-10T13:06:41;16.45;;;12.27;;
11608;SDS011;5860;52.018;8.536;2023-05-10T13:09:09;18.50;;;13.10;;
11608;SDS011;5860;52.018;8.536;2023-05-10T13:11:36;20.17;;;12.55;;
11608;SDS011;5860;52.018;8.536;2023-05-10T13:14:03;17.60;;;12.90;;
11608;SDS011;5860;52.018;8.536;2023-05-10T13:16:30;14.48;;;11.10;;
11608;SDS011;5860;52.018;8.536;2023-05-10T13:18:57;15.02;;;10.85;;
11608;SDS011;5860;52.018;8.536;2023-05-10T13:21:25;15.38;;;11.93;;
11608;SDS011;5860;52.018;8.536;2023-05-10T13:23:52;16.23;;;11.73;;
11608;SDS011;5860;52.018;8.536;2023-05-10T13:26:19;15.65;;;11.23;;
11608;SDS011;5860;52.018;8.536;2023-05-10T13:28:47;15.05;;;12.18;;
11608;SDS011;5860;52.018;8.536;2023-05-10T13:31:15;14.10;;;11.05;;
11608;SDS011;5860;52.018;8.536;2023-05-10T13:33:42;14.23;;;11.27;;
11608;SDS011;5860;52.018;8.536;2023-05-10T13:36:09;20.70;;;12.27;;
11608;SDS011;5860;52.018;8.536;2023-05-10T13:38:36;13.02;;;8.23;;
11608;SDS011;5860;52.018;8.536;2023-05-10T13:41:03;17.30;;;8.70;;
11608;SDS011;5860;52.018;8.536;2023-05-10T13:43:30;10.70;;;7.57;;
11608;SDS011;5860;52.018;8.536;2023-05-10T13:45:57;12.57;;;9.90;;
11608;SDS011;5860;52.018;8.536;2023-05-10T13:48:24;13.90;;;9.97;;
11608;SDS011;5860;52.018;8.536;2023-05-10T13:50:51;15.70;;;10.93;;
11608;SDS011;5860;52.018;8.536;2023-05-10T13:53:18;16.23;;;12.03;;
11608;SDS011;5860;52.018;8.536;2023-05-10T13:55:45;16.70;;;11.83;;
11608;SDS011;5860;52.018;8.536;2023-05-10T13:58:13;16.77;;;12.50;;
11608;SDS011;5860;52.018;8.536;2023-05-10T14:00:40;17.77;;;11.53;;
11608;SDS011;5860;52.018;8.536;2023-05-10T14:03:07;19.20;;;13.00;;
11608;SDS011;5860;52.018;8.536;2023-05-10T14:05:37;16.13;;;12.13;;
11608;SDS011;5860;52.018;8.536;2023-05-10T14:08:04;18.23;;;12.80;;
11608;SDS011;5860;52.018;8.536;2023-05-10T14:10:31;20.30;;;14.40;;
11608;SDS011;5860;52.018;8.536;2023-05-10T14:12:59;19.13;;;13.13;;
11608;SDS011;5860;52.018;8.536;2023-05-10T14:15:26;17.37;;;12.47;;
11608;SDS011;5860;52.018;8.536;2023-05-10T14:17:53;18.50;;;13.40;;
11608;SDS011;5860;52.018;8.536;2023-05-10T14:20:20;23.03;;;13.67;;
11608;SDS011;5860;52.018;8.536;2023-05-10T14:22:46;18.67;;;13.13;;
11608;SDS011;5860;52.018;8.536;2023-05-10T14:25:13;20.67;;;12.90;;
11608;SDS011;5860;52.018;8.536;2023-05-10T14:27:43;19.33;;;12.53;;
11608;SDS011;5860;52.018;8.536;2023-05-10T14:30:10;20.27;;;13.80;;
11608;SDS011;5860;52.018;8.536;2023-05-10T14:32:37;20.17;;;13.63;;
11608;SDS011;5860;52.018;8.536;2023-05-10T14:35:05;19.03;;;13.43;;
11608;SDS011;5860;52.018;8.536;2023-05-10T14:37:32;18.90;;;13.13;;
11608;SDS011;5860;52.018;8.536;2023-05-10T14:39:59;21.67;;;14.83;;
11608;SDS011;5860;52.018;8.536;2023-05-10T14:42:26;20.03;;;14.00;;
11608;SDS011;5860;52.018;8.536;2023-05-10T14:44:54;18.93;;;14.73;;
11608;SDS011;5860;52.018;8.536;2023-05-10T14:47:21;19.83;;;13.63;;
11608;SDS011;5860;52.018;8.536;2023-05-10T14:49:48;16.53;;;12.67;;
11608;SDS011;5860;52.018;8.536;2023-05-10T14:52:15;18.33;;;13.57;;
11608;SDS011;5860;52.018;8.536;2023-05-10T14:54:43;18.40;;;13.30;;
11608;SDS011;5860;52.018;8.536;2023-05-10T14:57:10;19.40;;;14.00;;
11608;SDS011;5860;52.018;8.536;2023-05-10T14:59:37;17.37;;;14.03;;
11608;SDS011;5860;52.018;8.536;2023-05-10T15:02:04;20.90;;;15.40;;
11608;SDS011;5860;52.018;8.536;2023-05-10T15:04:32;19.13;;;13.53;;
11608;SDS011;5860;52.018;8.536;2023-05-10T15:07:00;19.60;;;15.33;;
11608;SDS011;5860;52.018;8.536;2023-05-10T15:09:27;18.57;;;14.00;;
11608;SDS011;5860;52.018;8.536;2023-05-10T15:11:54;19.00;;;14.73;;
11608;SDS011;5860;52.018;8.536;2023-05-10T15:14:22;19.10;;;14.30;;
11608;SDS011;5860;52.018;8.536;2023-05-10T15:16:49;18.70;;;14.13;;
11608;SDS011;5860;52.018;8.536;2023-05-10T15:19:16;20.00;;;15.10;;
11608;SDS011;5860;52.018;8.536;2023-05-10T15:21:43;18.33;;;13.13;;
11608;SDS011;5860;52.018;8.536;2023-05-10T15:24:10;17.73;;;13.47;;
11608;SDS011;5860;52.018;8.536;2023-05-10T15:26:37;19.07;;;13.40;;
11608;SDS011;5860;52.018;8.536;2023-05-10T15:29:04;16.63;;;12.93;;
11608;SDS011;5860;52.018;8.536;2023-05-10T15:31:31;16.73;;;13.87;;
11608;SDS011;5860;52.018;8.536;2023-05-10T15:34:01;17.13;;;13.53;;
11608;SDS011;5860;52.018;8.536;2023-05-10T15:36:28;20.02;;;13.98;;
11608;SDS011;5860;52.018;8.536;2023-05-10T15:38:55;22.83;;;14.17;;
11608;SDS011;5860;52.018;8.536;2023-05-10T15:41:22;21.35;;;14.07;;
11608;SDS011;5860;52.018;8.536;2023-05-10T15:43:49;18.20;;;14.10;;
11608;SDS011;5860;52.018;8.536;2023-05-10T15:46:17;16.65;;;13.55;;
11608;SDS011;5860;52.018;8.536;2023-05-10T15:48:44;18.27;;;13.87;;
11608;SDS011;5860;52.018;8.536;2023-05-10T15:51:11;20.03;;;14.80;;
11608;SDS011;5860;52.018;8.536;2023-05-10T15:53:38;16.53;;;12.83;;
11608;SDS011;5860;52.018;8.536;2023-05-10T15:56:18;19.47;;;14.90;;